createdAt,value
2023-03-18T00:04:20.329Z,11.16
2023-03-18T00:09:21.878Z,11.34
2023-03-18T00:14:24.154Z,11.29
2023-03-18T00:19:26.593Z,11.30
2023-03-18T00:24:29.372Z,11.30
2023-03-18T00:29:31.124Z,11.31
2023-03-18T00:34:32.917Z,11.39
2023-03-18T00:39:36.537Z,11.44
2023-03-18T00:44:38.250Z,11.44
2023-03-18T00:49:39.785Z,11.48
2023-03-18T00:54:41.583Z,11.56
2023-03-18T00:59:44.156Z,11.54
2023-03-18T01:04:47.026Z,11.55
2023-03-18T01:09:49.351Z,11.61
2023-03-18T01:14:51.013Z,11.65
2023-03-18T01:19:53.066Z,11.70
2023-03-18T01:24:54.810Z,11.58
2023-03-18T01:30:05.252Z,11.54
2023-03-18T01:35:07.515Z,11.43
2023-03-18T01:40:12.043Z,11.46
2023-03-18T01:45:24.714Z,11.34
2023-03-18T01:50:34.247Z,11.36
2023-03-18T01:55:38.703Z,11.31
2023-03-18T02:00:44.521Z,11.30
2023-03-18T02:05:46.201Z,11.30
2023-03-18T02:10:48.955Z,11.36
2023-03-18T02:15:56.912Z,11.42
2023-03-18T02:21:20.354Z,11.36
2023-03-18T02:26:36.076Z,11.23
2023-03-18T02:31:40.736Z,11.12
2023-03-18T02:36:42.428Z,10.99
2023-03-18T02:41:45.155Z,10.94
2023-03-18T02:46:47.541Z,10.80
2023-03-18T02:51:50.178Z,10.63
2023-03-18T02:56:52.620Z,10.50
2023-03-18T03:01:55.366Z,10.35
2023-03-18T03:06:59.329Z,10.05
2023-03-18T03:12:14.196Z,10.09
2023-03-18T03:17:22.208Z,10.11
2023-03-18T03:22:25.762Z,9.96
2023-03-18T03:27:30.070Z,9.86
2023-03-18T03:32:31.658Z,9.87
2023-03-18T03:37:33.265Z,10.16
2023-03-18T03:42:34.937Z,10.14
2023-03-18T03:47:37.001Z,10.03
2023-03-18T03:52:39.702Z,9.66
2023-03-18T03:57:41.446Z,9.26
2023-03-18T04:02:44.506Z,9.19
2023-03-18T04:07:47.863Z,9.03
2023-03-18T04:12:49.781Z,8.95
2023-03-18T04:17:51.489Z,9.27
2023-03-18T04:22:54.075Z,8.97
2023-03-18T04:27:58.225Z,8.82
2023-03-18T04:33:00.475Z,9.07
2023-03-18T04:38:02.598Z,9.27
2023-03-18T04:43:04.458Z,9.20
2023-03-18T04:48:06.554Z,9.38
2023-03-18T04:53:12.978Z,9.39
2023-03-18T04:58:15.869Z,9.22
2023-03-18T05:03:25.902Z,9.00
2023-03-18T05:08:28.093Z,9.15
2023-03-18T05:13:30.430Z,9.32
2023-03-18T05:18:32.471Z,9.32
2023-03-18T05:23:37.272Z,9.86
2023-03-18T05:28:39.247Z,10.14
2023-03-18T05:33:56.325Z,10.32
2023-03-18T05:39:00.705Z,10.47
2023-03-18T05:44:03.094Z,10.63
2023-03-18T05:49:09.707Z,10.70
2023-03-18T05:54:40.268Z,10.83
2023-03-18T05:59:41.964Z,10.96
2023-03-18T06:04:44.796Z,10.62
2023-03-18T06:09:48.540Z,10.56
2023-03-18T06:14:50.345Z,11.10
2023-03-18T06:19:52.309Z,11.63
2023-03-18T06:24:54.351Z,11.99
2023-03-18T06:29:56.294Z,11.94
2023-03-18T06:34:58.059Z,12.00
2023-03-18T06:40:00.436Z,11.60
2023-03-18T06:45:02.366Z,12.43
2023-03-18T06:50:18.143Z,13.48
2023-03-18T06:55:20.072Z,13.84
2023-03-18T07:00:22.494Z,13.60
2023-03-18T07:05:24.270Z,13.96
2023-03-18T07:10:28.700Z,14.24
2023-03-18T07:15:38.321Z,14.50
2023-03-18T07:20:40.525Z,14.86
2023-03-18T07:25:42.308Z,15.12
2023-03-18T07:30:43.875Z,15.79
2023-03-18T07:35:45.491Z,16.38
2023-03-18T07:40:47.047Z,16.62
2023-03-18T07:45:48.730Z,16.16
2023-03-18T07:50:50.385Z,16.03
2023-03-18T07:55:51.927Z,16.41
2023-03-18T08:00:53.440Z,16.36
2023-03-18T08:05:55.171Z,16.29
2023-03-18T08:10:58.266Z,16.35
2023-03-18T08:15:59.788Z,17.05
2023-03-18T08:21:01.416Z,17.37
2023-03-18T08:26:03.736Z,17.31
2023-03-18T08:31:05.677Z,16.75
2023-03-18T08:36:08.334Z,16.47
2023-03-18T08:41:09.983Z,16.51
2023-03-18T08:46:11.565Z,17.22
2023-03-18T08:51:13.228Z,17.52
2023-03-18T08:56:14.898Z,16.94
2023-03-18T09:01:17.354Z,16.77
2023-03-18T09:06:18.905Z,16.44
2023-03-18T09:11:20.479Z,16.39
2023-03-18T09:16:22.209Z,16.75
2023-03-18T09:21:23.827Z,16.93
2023-03-18T09:26:25.370Z,17.26
2023-03-18T09:31:26.888Z,17.49
2023-03-18T09:36:28.502Z,17.41
2023-03-18T09:41:41.560Z,18.42
2023-03-18T09:47:05.024Z,18.03
2023-03-18T09:52:32.224Z,18.28
2023-03-18T09:57:39.088Z,18.52
2023-03-18T10:02:45.902Z,18.85
2023-03-18T10:07:53.259Z,19.31
2023-03-18T10:13:50.528Z,19.89
2023-03-18T10:18:52.207Z,20.63
2023-03-18T10:24:23.922Z,20.92
2023-03-18T10:29:38.230Z,20.57
2023-03-18T10:34:41.140Z,18.99
2023-03-18T10:39:42.871Z,18.76
2023-03-18T10:44:45.500Z,18.57
2023-03-18T10:50:12.941Z,19.61
2023-03-18T10:55:23.721Z,20.02
2023-03-18T11:00:31.689Z,20.00
2023-03-18T11:05:37.296Z,20.91
2023-03-18T11:10:44.998Z,20.22
2023-03-18T11:15:52.388Z,20.69
2023-03-18T11:20:59.755Z,22.05
2023-03-18T11:26:02.404Z,21.52
2023-03-18T11:31:06.019Z,20.80
2023-03-18T11:36:13.376Z,19.29
2023-03-18T11:41:23.907Z,19.20
2023-03-18T11:46:40.528Z,19.62
2023-03-18T11:52:14.133Z,20.53
2023-03-18T11:57:21.380Z,20.89
2023-03-18T12:02:40.802Z,21.29
2023-03-18T12:07:44.919Z,21.67
2023-03-18T12:13:04.501Z,20.57
2023-03-18T12:18:36.983Z,20.19
2023-03-18T12:24:21.582Z,20.15
2023-03-18T12:29:42.785Z,19.93
2023-03-18T12:34:59.524Z,20.58
2023-03-18T12:40:49.893Z,21.83
2023-03-18T12:45:57.950Z,22.19
2023-03-18T12:51:06.119Z,22.12
2023-03-18T12:56:18.025Z,20.18
2023-03-18T13:01:31.860Z,19.82
2023-03-18T13:06:44.366Z,20.02
2023-03-18T13:11:59.099Z,19.88
2023-03-18T13:17:02.611Z,19.83
2023-03-18T13:22:25.969Z,19.39
2023-03-18T13:27:50.893Z,18.94
2023-03-18T13:33:15.934Z,19.03
2023-03-18T13:38:37.518Z,18.82
2023-03-18T13:43:42.996Z,18.75
2023-03-18T13:48:44.722Z,18.52
2023-03-18T13:53:48.026Z,18.06
2023-03-18T13:58:49.629Z,17.27
2023-03-18T14:03:51.109Z,16.27
2023-03-18T14:08:53.762Z,15.44
2023-03-18T14:13:57.992Z,15.31
2023-03-18T14:19:10.007Z,15.66
2023-03-18T14:24:12.525Z,15.90
2023-03-18T14:29:13.997Z,16.06
2023-03-18T14:34:18.541Z,16.05
2023-03-18T14:39:31.578Z,16.21
2023-03-18T14:44:54.516Z,16.39
2023-03-18T14:50:01.851Z,16.79
2023-03-18T14:55:15.980Z,17.17
2023-03-18T15:00:19.166Z,17.15
2023-03-18T15:05:20.715Z,17.64
2023-03-18T15:10:29.251Z,18.26
2023-03-18T15:15:31.183Z,17.77
2023-03-18T15:20:35.532Z,19.37
2023-03-18T15:25:39.167Z,19.63
2023-03-18T15:30:50.911Z,19.40
2023-03-18T15:36:07.562Z,18.81
2023-03-18T15:41:11.177Z,18.30
2023-03-18T15:46:29.963Z,18.80
2023-03-18T15:51:45.756Z,18.49
2023-03-18T15:56:49.227Z,18.26
2023-03-18T16:01:50.829Z,18.03
2023-03-18T16:06:52.404Z,18.25
2023-03-18T16:12:00.517Z,18.70
2023-03-18T16:17:02.050Z,18.36
2023-03-18T16:22:06.492Z,17.85
2023-03-18T16:27:20.470Z,17.60
2023-03-18T16:32:22.136Z,17.54
2023-03-18T16:37:25.944Z,17.80
2023-03-18T16:42:27.552Z,17.97
2023-03-18T16:47:29.126Z,18.01
2023-03-18T16:52:30.634Z,18.14
2023-03-18T16:57:32.126Z,18.23
2023-03-18T17:02:35.115Z,17.90
2023-03-18T17:07:36.633Z,17.08
2023-03-18T17:12:39.666Z,16.65
2023-03-18T17:17:41.446Z,16.36
2023-03-18T17:22:43.664Z,16.29
2023-03-18T17:27:55.207Z,16.16
2023-03-18T17:32:56.765Z,16.05
2023-03-18T17:37:58.316Z,15.50
2023-03-18T17:42:59.891Z,14.80
2023-03-18T17:48:12.790Z,14.70
2023-03-18T17:53:44.054Z,15.03
2023-03-18T17:58:50.520Z,15.08
2023-03-18T18:03:59.266Z,14.92
2023-03-18T18:09:00.937Z,14.59
2023-03-18T18:14:26.792Z,13.85
2023-03-18T18:19:28.275Z,13.47
2023-03-18T18:24:31.149Z,13.45
2023-03-18T18:29:34.938Z,14.44
2023-03-18T18:34:36.747Z,14.62
2023-03-18T18:39:38.264Z,14.60
2023-03-18T18:44:39.856Z,14.04
2023-03-18T18:49:41.378Z,13.35
2023-03-18T18:54:43.236Z,13.04
2023-03-18T18:59:44.768Z,13.09
2023-03-18T19:04:46.267Z,12.86
2023-03-18T19:09:47.837Z,12.64
2023-03-18T19:14:49.316Z,12.61
2023-03-18T19:19:51.907Z,12.82
2023-03-18T19:24:53.610Z,13.13
2023-03-18T19:30:00.668Z,13.29
2023-03-18T19:35:02.332Z,13.38
2023-03-18T19:40:20.895Z,13.39
2023-03-18T19:45:22.632Z,13.48
2023-03-18T19:50:24.157Z,13.53
2023-03-18T19:55:25.873Z,13.29
2023-03-18T20:00:27.414Z,13.24
2023-03-18T20:05:28.928Z,13.17
2023-03-18T20:10:31.196Z,13.11
2023-03-18T20:15:33.096Z,13.14
2023-03-18T20:20:34.849Z,13.12
2023-03-18T20:25:39.199Z,13.15
2023-03-18T20:30:41.104Z,13.45
2023-03-18T20:35:44.814Z,13.52
2023-03-18T20:40:46.376Z,13.52
2023-03-18T20:45:48.640Z,13.37
2023-03-18T20:50:51.806Z,13.27
2023-03-18T20:55:53.342Z,13.22
2023-03-18T21:00:55.079Z,13.27
2023-03-18T21:05:58.805Z,13.28
2023-03-18T21:11:02.012Z,13.39
2023-03-18T21:16:06.184Z,13.38
2023-03-18T21:21:17.354Z,13.51
2023-03-18T21:26:18.872Z,13.51
2023-03-18T21:31:24.300Z,13.51
2023-03-18T21:36:25.875Z,13.57
2023-03-18T21:41:29.318Z,13.52
2023-03-18T21:46:30.930Z,13.28
2023-03-18T21:51:39.180Z,13.44
2023-03-18T21:56:40.967Z,13.54
2023-03-18T22:01:42.585Z,13.48
2023-03-18T22:06:44.142Z,13.51
2023-03-18T22:11:45.692Z,13.51
2023-03-18T22:16:47.215Z,13.54
2023-03-18T22:21:48.817Z,13.49
2023-03-18T22:26:50.318Z,13.46
2023-03-18T22:31:51.924Z,13.36
2023-03-18T22:36:53.448Z,13.23
2023-03-18T22:41:54.964Z,13.21
2023-03-18T22:46:56.628Z,13.16
2023-03-18T22:51:58.170Z,13.00
2023-03-18T22:56:59.781Z,12.73
2023-03-18T23:02:01.392Z,12.47
2023-03-18T23:07:03.002Z,12.24
2023-03-18T23:12:04.706Z,12.48
2023-03-18T23:17:06.401Z,12.52
2023-03-18T23:22:14.044Z,12.58
2023-03-18T23:27:15.565Z,12.63
2023-03-18T23:32:18.420Z,12.79
2023-03-18T23:37:20.030Z,13.29
2023-03-18T23:42:21.612Z,13.56
2023-03-18T23:47:23.157Z,13.49
2023-03-18T23:52:24.752Z,13.27
2023-03-18T23:57:27.540Z,13.07
